ASN logo
Accident
Last updated: 20 October 2017
Statuts:Enquête Officielle
Date:samedi 13 octobre 2012
Heure:18:52
Type/Sous-type:Silhouette image of generic MD11 model; specific model in this crash may look slightly different
McDonnell Douglas MD-11F
Compagnie:Centurion Air Cargo
Immatriculation: N988AR
Numéro de série: 48434/476
Année de Fabrication: 1991
Moteurs: 3 General Electric CF6-80C2D1F
Equipage:victimes: 0 / à bord: 3
Passagers:victimes: 0 / à bord: 0
Total:victimes: 0 / à bord: 3
Dégats de l'appareil: Perte Totale
Conséquences: Written off (damaged beyond repair)
Lieu de l'accident:São Paulo/Campinas-Viracopos International Airport, SP (VCP) (   Brésil)
Phase de vol: A l'atterrissage (LDG)
Nature:Cargo
Aéroport de départ:Miami International Airport, FL (MIA/KMIA), Etats-Unis d'Amérique
Aéroport de destination:São Paulo/Campinas-Viracopos International Airport, SP (VCP/SBKP), Brésil
Numéro de vol:WE425
Détails:
An McDonnell Douglas MD-11F cargo plane, operated by Centurion Air Cargo, sustained substantial damage in a landing accident at São Paulo/Campinas-Viracopos International Airport, SP (VCP), Brazil.
Flight WE425 operated on a cargo flight from Miami International Airport, FL (MIA), USA. The flight crew performed the IFR ILS Z procedure for runway 15 at Viracopos Airport. The prevailing weather conditions were VMC. The wind was 140 degrees / 19kt. When the aircraft was cleared to land, the wind strength was 20kt, with peak gusts at 29kt. Upon touchdown there was total collapse of the left main landing gear and the aircraft skidded along the runway for 800 meters before the final stop, sustaining damage to the left landing gear, left wing, and left engine.

This same MD-11 was involved in an accident on October 20, 2009 when the right hand main landing gear leg was bent sideways during landing at Montevideo-Carrasco Airport (MVD), Uruguay.

Probable Cause:

Contributing factors.
- Aircraft maintenance - undetermined.
In the tasks that led to the restoration of the aircraft airworthiness after the accident in Uruguay in 2009 (Hard-Landing), and also in subsequent periodic inspections, the existence of pre-crack traces resulting from a previous overload condition may not have been identified, something that could have resulted in a point of stress concentration.

Accident investigation:
cover
Investigating agency: CENIPA
Status: Investigation completed
Duration: 3 years and 6 months
Accident number: A-501/CENIPA/2015
Download report: Final report

Sources:
» RAC.com.br
» Scramble 403

METAR Weather report:
20:00 UTC / 17:00 local time:
SBKP - 132000Z 13020KT 9999 FEW025 SCT030 BKN090 19/14 Q1020

21:00 UTC / 18:00 local time:
SBKP - 132100Z 14018KT 9999 FEW018 SCT030 BKN090 18/14 Q1020

22:00 UTC / 19:00 local time:
SBKP - 132200Z 13018G31KT 9999 FEW018 SCT045 BKN090 18/13 Q1020


Photos

photo of McDonnell Douglas MD-11F N988AR
Add your photo of this accident or aircraft
 

Video, social media

Plan
Ce plan montre l'aéroport de départ ainsi que la supposée destination du vol. La ligne fixe reliant les deux aéroports n'est pas le plan de vol exact.
La distance entre Miami International Airport, FL et São Paulo/Campinas-Viracopos International Airport, SP est de 6456 km (4035 miles).

Les informations ci-dessus ne représentent pas l'opinion de la 'Flight Safety Foundation' ou de 'Aviation Safety Network' sur les causes de l'accident. Ces informations prélimimaires sont basées sur les faits tel qu'ils sont connus à ce jour.
languages: languages

Share

MD-11

  • 200 built
  • 9ème loss
» safety profile